Time;durP1;ratioP1;P1;durP2;ratioP2;P2;SDS_P1;SDS_P2;PMS_P1;PMS_P2;Temp;Humidity;BMP_temperature;BMP_pressure;BME280_temperature;BME280_humidity;BME280_pressure;Samples;Min_cycle;Max_cycle;Signal;HPM_P1;HPM_P2
2022/08/16 00:01:54;;;;;;;11.77;8.63;;;;;;;;;;5135261;27;20513;-65
2022/08/16 00:04:21;;;;;;;10.10;8.43;;;;;;;;;;5135013;27;20527;-65
2022/08/16 00:06:48;;;;;;;9.60;8.80;;;;;;;;;;5134973;27;20550;-65
2022/08/16 00:09:16;;;;;;;11.90;8.87;;;;;;;;;;5135057;27;20527;-65
2022/08/16 00:11:45;;;;;;;12.10;9.27;;;;;;;;;;5134471;27;20430;-65
2022/08/16 00:14:15;;;;;;;11.23;9.07;;;;;;;;;;5134528;27;20516;-65
2022/08/16 00:16:42;;;;;;;10.67;8.87;;;;;;;;;;5134347;27;20473;-65
2022/08/16 00:19:09;;;;;;;9.77;8.77;;;;;;;;;;5134382;27;20442;-64
2022/08/16 00:21:37;;;;;;;9.37;8.37;;;;;;;;;;5134983;27;20438;-65
2022/08/16 00:24:04;;;;;;;10.60;9.60;;;;;;;;;;5134413;27;20524;-65
2022/08/16 00:26:31;;;;;;;11.27;10.17;;;;;;;;;;5133827;27;20473;-65
2022/08/16 00:29:00;;;;;;;10.93;9.80;;;;;;;;;;5135112;27;20527;-65
2022/08/16 00:31:27;;;;;;;10.87;9.80;;;;;;;;;;5134616;27;20490;-65
2022/08/16 00:33:54;;;;;;;12.20;9.30;;;;;;;;;;5135207;27;20437;-65
2022/08/16 00:36:22;;;;;;;18.80;10.80;;;;;;;;;;5134366;27;21028;-65
2022/08/16 00:38:49;;;;;;;11.67;10.40;;;;;;;;;;5135306;27;20441;-65
2022/08/16 00:41:16;;;;;;;11.37;10.27;;;;;;;;;;5134886;27;20444;-65
2022/08/16 00:43:43;;;;;;;11.10;10.20;;;;;;;;;;5134531;28;20543;-65
2022/08/16 00:46:14;;;;;;;15.83;11.20;;;;;;;;;;5134310;28;20524;-66
2022/08/16 00:48:43;;;;;;;12.20;9.90;;;;;;;;;;5134649;28;20505;-65
2022/08/16 00:51:10;;;;;;;11.33;10.33;;;;;;;;;;5133947;28;20498;-65
2022/08/16 00:53:37;;;;;;;12.00;10.73;;;;;;;;;;5134626;28;20434;-65
2022/08/16 00:56:07;;;;;;;11.83;10.50;;;;;;;;;;5134517;28;20479;-65
2022/08/16 00:58:35;;;;;;;12.93;10.83;;;;;;;;;;5134641;28;20434;-65
2022/08/16 01:01:03;;;;;;;12.77;11.57;;;;;;;;;;5134387;28;20788;-65
2022/08/16 01:03:32;;;;;;;10.80;9.80;;;;;;;;;;5133922;28;20517;-65
2022/08/16 01:05:59;;;;;;;11.03;9.30;;;;;;;;;;5133933;28;20448;-65
2022/08/16 01:08:27;;;;;;;11.47;10.03;;;;;;;;;;5133864;28;20559;-65
2022/08/16 01:10:54;;;;;;;10.80;9.90;;;;;;;;;;5133879;28;20521;-65
2022/08/16 01:13:22;;;;;;;10.20;9.20;;;;;;;;;;5134024;28;20533;-65
2022/08/16 01:15:50;;;;;;;9.97;9.17;;;;;;;;;;5134687;28;20488;-65
2022/08/16 01:18:19;;;;;;;10.33;9.30;;;;;;;;;;5134067;28;20529;-65
2022/08/16 01:20:53;;;;;;;9.07;8.17;;;;;;;;;;5134147;28;20517;-65
2022/08/16 01:23:24;;;;;;;10.03;9.03;;;;;;;;;;5134196;28;20508;-65
2022/08/16 01:25:53;;;;;;;9.47;8.67;;;;;;;;;;5134163;28;20467;-65
2022/08/16 01:28:21;;;;;;;9.13;8.37;;;;;;;;;;5134181;28;20447;-65
2022/08/16 01:30:50;;;;;;;9.53;8.73;;;;;;;;;;5134420;28;20452;-65
2022/08/16 01:33:18;;;;;;;12.50;10.30;;;;;;;;;;5133962;28;20441;-65
2022/08/16 01:35:47;;;;;;;9.90;9.00;;;;;;;;;;5133939;28;20445;-65
2022/08/16 01:38:17;;;;;;;9.97;9.07;;;;;;;;;;5135944;27;20781;-65
2022/08/16 01:40:44;;;;;;;10.83;9.00;;;;;;;;;;5137842;27;20543;-65
2022/08/16 01:43:13;;;;;;;10.47;8.60;;;;;;;;;;5137772;27;20440;-65
2022/08/16 01:45:40;;;;;;;10.70;9.27;;;;;;;;;;5138012;27;20463;-65
2022/08/16 01:48:08;;;;;;;9.13;8.23;;;;;;;;;;5138009;27;20444;-65
2022/08/16 01:50:35;;;;;;;9.83;8.60;;;;;;;;;;5137920;27;20443;-65
2022/08/16 01:53:03;;;;;;;10.03;8.50;;;;;;;;;;5137174;27;20432;-65
2022/08/16 01:55:30;;;;;;;9.43;8.63;;;;;;;;;;5137514;27;20532;-65
2022/08/16 01:57:57;;;;;;;10.10;9.07;;;;;;;;;;5137297;27;20473;-65
2022/08/16 02:00:27;;;;;;;9.80;9.00;;;;;;;;;;5137151;27;21059;-65
2022/08/16 02:02:54;;;;;;;10.53;9.20;;;;;;;;;;5137333;27;20445;-65
2022/08/16 02:05:21;;;;;;;11.13;10.03;;;;;;;;;;5137013;27;21026;-64
2022/08/16 02:07:48;;;;;;;11.20;10.10;;;;;;;;;;5137266;27;20869;-65
2022/08/16 02:10:16;;;;;;;12.00;10.50;;;;;;;;;;5137259;27;20446;-65
2022/08/16 02:12:43;;;;;;;11.47;10.30;;;;;;;;;;5137120;27;20516;-65
2022/08/16 02:15:11;;;;;;;11.30;10.30;;;;;;;;;;5137260;27;20473;-65
2022/08/16 02:17:39;;;;;;;11.80;10.70;;;;;;;;;;5137159;27;20484;-65
2022/08/16 02:20:07;;;;;;;12.17;10.97;;;;;;;;;;5136739;27;20432;-65
2022/08/16 02:22:35;;;;;;;11.80;9.97;;;;;;;;;;5136622;27;20929;-66
2022/08/16 02:25:02;;;;;;;10.97;9.90;;;;;;;;;;5136958;27;20437;-65
2022/08/16 02:27:30;;;;;;;12.50;10.90;;;;;;;;;;5136862;27;20472;-66
2022/08/16 02:29:57;;;;;;;11.10;10.00;;;;;;;;;;5136929;27;20531;-65
2022/08/16 02:32:24;;;;;;;13.63;11.37;;;;;;;;;;5136790;27;20512;-65
2022/08/16 02:34:53;;;;;;;11.63;10.50;;;;;;;;;;5136473;27;20538;-65
2022/08/16 02:37:20;;;;;;;11.03;9.93;;;;;;;;;;5136717;27;20567;-65
2022/08/16 02:39:47;;;;;;;13.00;10.97;;;;;;;;;;5136694;27;20443;-65
2022/08/16 02:42:14;;;;;;;10.77;9.67;;;;;;;;;;5136977;27;20456;-65
2022/08/16 02:44:41;;;;;;;11.40;10.30;;;;;;;;;;5136729;27;20535;-65
2022/08/16 02:47:09;;;;;;;10.40;9.50;;;;;;;;;;5136247;27;20444;-65
2022/08/16 02:49:36;;;;;;;11.63;10.63;;;;;;;;;;5135802;27;20786;-65
2022/08/16 02:52:06;;;;;;;14.10;10.67;;;;;;;;;;5136502;27;20442;-65
2022/08/16 02:54:33;;;;;;;11.57;10.67;;;;;;;;;;5136595;27;20842;-65
2022/08/16 02:57:01;;;;;;;11.33;10.20;;;;;;;;;;5136271;27;20477;-65
2022/08/16 02:59:28;;;;;;;10.97;9.03;;;;;;;;;;5136242;27;20456;-66
2022/08/16 03:01:55;;;;;;;11.00;9.90;;;;;;;;;;5136037;27;20535;-66
2022/08/16 03:04:22;;;;;;;11.43;10.37;;;;;;;;;;5136358;27;20460;-65
2022/08/16 03:06:50;;;;;;;10.50;9.53;;;;;;;;;;5136160;27;20448;-65
2022/08/16 03:09:19;;;;;;;10.70;9.70;;;;;;;;;;5136038;27;20448;-65
2022/08/16 03:11:46;;;;;;;11.20;9.20;;;;;;;;;;5135795;27;20530;-65
2022/08/16 03:14:13;;;;;;;9.53;8.73;;;;;;;;;;5135851;27;20473;-65
2022/08/16 03:16:41;;;;;;;12.23;9.87;;;;;;;;;;5135949;27;20479;-65
2022/08/16 03:19:08;;;;;;;9.50;8.60;;;;;;;;;;5135937;27;20436;-65
2022/08/16 03:21:36;;;;;;;9.83;8.90;;;;;;;;;;5135539;27;20530;-65
2022/08/16 03:24:03;;;;;;;10.60;9.70;;;;;;;;;;5135411;27;20456;-65
2022/08/16 03:26:32;;;;;;;11.30;10.40;;;;;;;;;;5135781;27;20857;-65
2022/08/16 03:28:59;;;;;;;11.03;10.00;;;;;;;;;;5135682;27;20451;-65
2022/08/16 03:31:26;;;;;;;10.33;9.43;;;;;;;;;;5135693;27;20444;-64
2022/08/16 03:33:53;;;;;;;10.93;9.83;;;;;;;;;;5135559;27;20452;-65
2022/08/16 03:36:21;;;;;;;11.60;10.20;;;;;;;;;;5135702;27;20437;-65
2022/08/16 03:38:48;;;;;;;11.90;9.50;;;;;;;;;;5135316;27;20438;-65
2022/08/16 03:41:16;;;;;;;10.27;9.27;;;;;;;;;;5135200;27;20445;-65
2022/08/16 03:43:44;;;;;;;11.70;10.37;;;;;;;;;;5135524;27;20452;-64
2022/08/16 03:46:12;;;;;;;10.37;9.50;;;;;;;;;;5135387;27;20441;-65
2022/08/16 03:48:40;;;;;;;14.67;10.10;;;;;;;;;;5135315;27;20440;-67
2022/08/16 03:51:08;;;;;;;10.43;9.43;;;;;;;;;;5135476;27;20446;-66
2022/08/16 03:53:36;;;;;;;10.33;9.43;;;;;;;;;;5135159;27;20441;-66
2022/08/16 03:56:03;;;;;;;10.00;9.07;;;;;;;;;;5134368;27;20521;-67
2022/08/16 03:58:30;;;;;;;12.10;10.90;;;;;;;;;;5134499;27;20503;-67
2022/08/16 04:00:59;;;;;;;10.93;9.70;;;;;;;;;;5134539;27;20446;-67
2022/08/16 04:03:27;;;;;;;9.93;8.93;;;;;;;;;;5134531;27;20917;-67
2022/08/16 04:05:54;;;;;;;10.00;9.00;;;;;;;;;;5134644;27;20480;-66
2022/08/16 04:08:22;;;;;;;10.53;9.23;;;;;;;;;;5134673;27;20455;-67
2022/08/16 04:10:49;;;;;;;12.67;10.43;;;;;;;;;;5134912;27;20445;-67
2022/08/16 04:13:17;;;;;;;9.67;8.67;;;;;;;;;;5134785;27;20527;-66
2022/08/16 04:15:44;;;;;;;10.83;9.80;;;;;;;;;;5134325;27;20568;-66
2022/08/16 04:18:13;;;;;;;11.20;10.20;;;;;;;;;;5134488;27;20480;-66
2022/08/16 04:20:40;;;;;;;10.70;9.70;;;;;;;;;;5134703;27;20439;-66
2022/08/16 04:23:08;;;;;;;10.60;9.80;;;;;;;;;;5134514;27;20436;-66
2022/08/16 04:25:35;;;;;;;10.43;9.17;;;;;;;;;;5134792;27;20440;-66
2022/08/16 04:28:03;;;;;;;12.60;9.80;;;;;;;;;;5134158;27;20947;-66
2022/08/16 04:30:31;;;;;;;15.37;9.33;;;;;;;;;;5134636;27;20450;-66
2022/08/16 04:32:59;;;;;;;11.00;9.90;;;;;;;;;;5134419;27;20442;-66
2022/08/16 04:35:27;;;;;;;10.67;9.77;;;;;;;;;;5134690;27;20492;-66
2022/08/16 04:37:55;;;;;;;9.80;8.87;;;;;;;;;;5134162;27;20493;-66
2022/08/16 04:40:23;;;;;;;11.27;9.03;;;;;;;;;;5134681;27;20447;-66
2022/08/16 04:42:51;;;;;;;9.30;8.60;;;;;;;;;;5134818;28;20491;-66
2022/08/16 04:45:18;;;;;;;12.20;9.70;;;;;;;;;;5133950;28;20534;-66
2022/08/16 04:47:46;;;;;;;9.77;8.87;;;;;;;;;;5134244;28;20948;-66
2022/08/16 04:50:14;;;;;;;13.97;9.80;;;;;;;;;;5134365;28;20478;-66
2022/08/16 04:52:45;;;;;;;11.57;8.70;;;;;;;;;;5134925;28;20518;-66
2022/08/16 04:55:13;;;;;;;8.90;8.10;;;;;;;;;;5134515;27;20437;-66
2022/08/16 04:57:41;;;;;;;10.93;9.83;;;;;;;;;;5134318;28;20829;-66
2022/08/16 05:00:12;;;;;;;9.97;8.80;;;;;;;;;;5133987;28;20449;-67
2022/08/16 05:02:39;;;;;;;9.73;8.70;;;;;;;;;;5134088;28;20459;-66
2022/08/16 05:05:07;;;;;;;10.53;9.13;;;;;;;;;;5134254;28;20439;-66
2022/08/16 05:07:34;;;;;;;11.53;9.57;;;;;;;;;;5133753;28;20448;-67
2022/08/16 05:10:04;;;;;;;9.90;9.00;;;;;;;;;;5132154;28;20432;-67
2022/08/16 05:12:32;;;;;;;14.47;9.90;;;;;;;;;;5133082;27;20902;-67
2022/08/16 05:14:59;;;;;;;10.20;9.27;;;;;;;;;;5137407;27;20480;-67
2022/08/16 05:17:26;;;;;;;10.33;9.00;;;;;;;;;;5138012;27;20563;-66
2022/08/16 05:19:54;;;;;;;10.63;9.53;;;;;;;;;;5138197;27;20798;-66
2022/08/16 05:22:21;;;;;;;9.07;8.23;;;;;;;;;;5138750;27;20437;-66
2022/08/16 05:24:49;;;;;;;11.80;9.53;;;;;;;;;;5137754;27;20526;-67
2022/08/16 05:27:17;;;;;;;11.33;9.03;;;;;;;;;;5138117;27;20442;-66
2022/08/16 05:29:44;;;;;;;10.53;9.50;;;;;;;;;;5137668;27;20922;-67
2022/08/16 05:32:12;;;;;;;10.03;9.03;;;;;;;;;;5138004;27;20445;-66
2022/08/16 05:34:39;;;;;;;9.73;8.70;;;;;;;;;;5137617;27;20442;-66
2022/08/16 05:37:06;;;;;;;10.90;8.90;;;;;;;;;;5137811;27;20473;-66
2022/08/16 05:39:33;;;;;;;9.00;8.10;;;;;;;;;;5137947;27;20440;-66
2022/08/16 05:42:01;;;;;;;8.37;7.60;;;;;;;;;;5137440;27;20432;-67
2022/08/16 05:44:30;;;;;;;10.27;8.40;;;;;;;;;;5137739;27;20458;-66
2022/08/16 05:46:58;;;;;;;9.93;8.93;;;;;;;;;;5137634;27;20431;-67
2022/08/16 05:49:26;;;;;;;10.73;9.67;;;;;;;;;;5137667;27;20447;-66
2022/08/16 05:51:54;;;;;;;9.53;8.63;;;;;;;;;;5137644;27;20455;-66
2022/08/16 05:54:21;;;;;;;10.53;8.90;;;;;;;;;;5137279;27;20944;-66
2022/08/16 05:56:49;;;;;;;9.60;8.40;;;;;;;;;;5137065;27;20528;-66
2022/08/16 05:59:17;;;;;;;10.10;9.20;;;;;;;;;;5137595;27;20999;-66
2022/08/16 06:01:49;;;;;;;12.50;8.87;;;;;;;;;;5137326;27;20440;-66
2022/08/16 06:04:16;;;;;;;10.00;8.63;;;;;;;;;;5137616;27;20516;-66
2022/08/16 06:06:45;;;;;;;11.23;9.47;;;;;;;;;;5136929;27;20483;-67
2022/08/16 06:09:13;;;;;;;11.50;9.20;;;;;;;;;;5137273;27;20531;-67
2022/08/16 06:11:40;;;;;;;11.03;9.60;;;;;;;;;;5136881;27;20446;-66
2022/08/16 06:14:08;;;;;;;9.50;8.60;;;;;;;;;;5137180;27;20513;-67
2022/08/16 06:16:35;;;;;;;14.77;8.60;;;;;;;;;;5137173;27;20436;-67
2022/08/16 06:19:04;;;;;;;11.37;8.63;;;;;;;;;;5137886;27;20484;-66
2022/08/16 06:21:31;;;;;;;11.23;10.27;;;;;;;;;;5137172;27;20861;-67
2022/08/16 06:23:58;;;;;;;10.60;9.60;;;;;;;;;;5136412;27;20443;-66
2022/08/16 06:26:26;;;;;;;10.47;9.37;;;;;;;;;;5136789;27;20518;-67
2022/08/16 06:28:53;;;;;;;9.87;8.87;;;;;;;;;;5136864;27;20444;-67
2022/08/16 06:31:20;;;;;;;11.60;9.00;;;;;;;;;;5136451;27;21013;-66
2022/08/16 06:33:47;;;;;;;9.97;9.07;;;;;;;;;;5136796;27;20468;-66
2022/08/16 06:36:16;;;;;;;9.77;8.73;;;;;;;;;;5137231;27;20439;-67
2022/08/16 06:38:43;;;;;;;9.90;9.00;;;;;;;;;;5136403;27;20479;-67
2022/08/16 06:41:11;;;;;;;10.23;9.20;;;;;;;;;;5136835;27;20455;-67
2022/08/16 06:43:38;;;;;;;10.40;9.50;;;;;;;;;;5136288;27;20540;-66
2022/08/16 06:46:08;;;;;;;10.80;9.67;;;;;;;;;;5136509;27;20527;-66
2022/08/16 06:48:36;;;;;;;9.60;8.77;;;;;;;;;;5136650;27;20846;-66
2022/08/16 06:51:03;;;;;;;11.33;9.83;;;;;;;;;;5137072;27;20452;-66
2022/08/16 06:53:33;;;;;;;10.17;9.27;;;;;;;;;;5136840;27;20449;-66
2022/08/16 06:56:05;;;;;;;13.80;10.63;;;;;;;;;;5136242;27;20507;-67
2022/08/16 06:58:32;;;;;;;9.80;8.97;;;;;;;;;;5136272;27;20467;-66
2022/08/16 07:01:00;;;;;;;10.50;9.50;;;;;;;;;;5136332;27;20525;-67
2022/08/16 07:03:27;;;;;;;9.83;9.03;;;;;;;;;;5135963;27;21040;-66
2022/08/16 07:05:55;;;;;;;9.97;9.00;;;;;;;;;;5136308;27;20445;-66
2022/08/16 07:08:23;;;;;;;12.40;8.53;;;;;;;;;;5136118;27;20442;-66
2022/08/16 07:10:52;;;;;;;10.13;9.23;;;;;;;;;;5136101;27;20442;-66
2022/08/16 07:13:19;;;;;;;9.47;8.57;;;;;;;;;;5135712;27;20926;-67
2022/08/16 07:15:48;;;;;;;14.30;9.10;;;;;;;;;;5135910;27;20473;-66
2022/08/16 07:18:18;;;;;;;11.77;8.90;;;;;;;;;;5135573;27;20978;-66
2022/08/16 07:20:45;;;;;;;10.47;9.47;;;;;;;;;;5136243;27;20449;-66
2022/08/16 07:23:13;;;;;;;15.23;9.93;;;;;;;;;;5135820;27;20533;-66
2022/08/16 07:25:40;;;;;;;9.30;8.40;;;;;;;;;;5135782;27;20456;-66
2022/08/16 07:28:09;;;;;;;11.60;8.70;;;;;;;;;;5135667;27;20856;-66
2022/08/16 07:30:38;;;;;;;11.07;8.70;;;;;;;;;;5136312;27;20522;-66
2022/08/16 07:33:06;;;;;;;12.83;8.73;;;;;;;;;;5135664;27;20437;-66
2022/08/16 07:35:33;;;;;;;12.90;9.20;;;;;;;;;;5135661;27;20464;-67
2022/08/16 07:38:00;;;;;;;10.00;9.07;;;;;;;;;;5135372;27;20501;-66
2022/08/16 07:40:27;;;;;;;10.40;9.30;;;;;;;;;;5135524;27;20953;-67
2022/08/16 07:42:55;;;;;;;11.00;8.87;;;;;;;;;;5135045;27;20536;-67
2022/08/16 07:45:23;;;;;;;9.97;9.00;;;;;;;;;;5136019;27;20444;-67
2022/08/16 07:47:50;;;;;;;10.20;9.20;;;;;;;;;;5135593;27;20529;-67
2022/08/16 07:50:18;;;;;;;10.17;9.10;;;;;;;;;;5135504;27;20438;-66
2022/08/16 07:52:45;;;;;;;10.17;9.10;;;;;;;;;;5135493;27;20434;-67
2022/08/16 07:55:13;;;;;;;9.47;8.57;;;;;;;;;;5134949;27;20482;-66
2022/08/16 07:57:41;;;;;;;10.70;8.73;;;;;;;;;;5135034;27;20469;-66
2022/08/16 08:00:09;;;;;;;11.30;8.37;;;;;;;;;;5135096;27;20438;-66
2022/08/16 08:02:37;;;;;;;9.23;8.43;;;;;;;;;;5134767;27;20456;-67
2022/08/16 08:05:05;;;;;;;10.93;8.60;;;;;;;;;;5134839;27;20526;-66
2022/08/16 08:07:32;;;;;;;10.53;8.40;;;;;;;;;;5134687;27;20958;-67
2022/08/16 08:10:00;;;;;;;12.33;9.07;;;;;;;;;;5134123;27;20446;-67
2022/08/16 08:12:27;;;;;;;10.47;8.50;;;;;;;;;;5134790;27;20468;-67
2022/08/16 08:14:54;;;;;;;10.00;8.97;;;;;;;;;;5134611;27;20561;-67
2022/08/16 08:17:21;;;;;;;14.27;9.17;;;;;;;;;;5134756;27;20513;-67
2022/08/16 08:19:50;;;;;;;8.57;7.20;;;;;;;;;;5134299;27;20631;-67
2022/08/16 08:22:17;;;;;;;8.87;7.93;;;;;;;;;;5134684;27;20436;-67
2022/08/16 08:24:45;;;;;;;12.83;9.17;;;;;;;;;;5134797;27;20861;-67
2022/08/16 08:27:13;;;;;;;11.40;7.70;;;;;;;;;;5134320;27;20444;-67
2022/08/16 08:29:41;;;;;;;9.23;8.37;;;;;;;;;;5134390;27;20494;-66
2022/08/16 08:32:09;;;;;;;8.70;7.90;;;;;;;;;;5134251;27;20481;-67
2022/08/16 08:34:37;;;;;;;10.60;8.17;;;;;;;;;;5134292;27;21013;-66
2022/08/16 08:37:05;;;;;;;11.10;8.00;;;;;;;;;;5134609;27;20444;-67
2022/08/16 08:39:33;;;;;;;8.37;7.53;;;;;;;;;;5134143;27;20470;-67
2022/08/16 08:42:01;;;;;;;7.57;6.97;;;;;;;;;;5134592;27;20449;-67
2022/08/16 08:44:28;;;;;;;8.03;7.27;;;;;;;;;;5134261;28;20441;-67
2022/08/16 08:46:57;;;;;;;8.83;6.67;;;;;;;;;;5134157;27;20431;-67
2022/08/16 08:49:24;;;;;;;11.67;8.03;;;;;;;;;;5134217;28;20446;-67
2022/08/16 08:51:51;;;;;;;14.17;8.50;;;;;;;;;;5134191;28;20436;-66
2022/08/16 08:54:20;;;;;;;8.87;8.07;;;;;;;;;;5133948;28;20432;-66
2022/08/16 08:56:47;;;;;;;10.97;7.83;;;;;;;;;;5134396;28;20528;-67
2022/08/16 08:59:15;;;;;;;10.07;7.60;;;;;;;;;;5134320;28;20471;-67
2022/08/16 09:01:42;;;;;;;7.50;6.90;;;;;;;;;;5134385;28;20579;-68
2022/08/16 09:04:09;;;;;;;8.80;7.90;;;;;;;;;;5134399;28;20451;-67
2022/08/16 09:06:37;;;;;;;10.67;7.90;;;;;;;;;;5134397;28;20519;-67
2022/08/16 09:09:06;;;;;;;8.80;8.00;;;;;;;;;;5134419;28;20451;-67
2022/08/16 09:11:35;;;;;;;15.13;8.00;;;;;;;;;;5134269;28;20430;-66
2022/08/16 09:14:02;;;;;;;7.43;6.63;;;;;;;;;;5133950;28;20482;-67
2022/08/16 09:16:31;;;;;;;6.87;6.17;;;;;;;;;;5134230;28;20441;-67
2022/08/16 09:18:59;;;;;;;8.83;7.50;;;;;;;;;;5134280;28;20568;-67
2022/08/16 09:21:27;;;;;;;8.73;7.93;;;;;;;;;;5133715;28;20479;-66
2022/08/16 09:23:54;;;;;;;9.23;8.33;;;;;;;;;;5133549;28;20521;-67
2022/08/16 09:26:23;;;;;;;13.87;7.47;;;;;;;;;;5134714;28;20445;-67
2022/08/16 09:28:51;;;;;;;10.93;7.30;;;;;;;;;;5134061;28;20449;-67
2022/08/16 09:31:19;;;;;;;8.10;7.40;;;;;;;;;;5133863;28;20882;-66
2022/08/16 09:33:46;;;;;;;13.63;8.20;;;;;;;;;;5133741;28;20524;-66
2022/08/16 09:36:13;;;;;;;7.70;6.90;;;;;;;;;;5133711;28;20529;-66
2022/08/16 09:38:41;;;;;;;8.77;7.77;;;;;;;;;;5133556;28;20481;-69
2022/08/16 09:41:10;;;;;;;8.07;7.20;;;;;;;;;;5133728;28;20442;-67
2022/08/16 09:43:38;;;;;;;12.13;8.03;;;;;;;;;;5133555;28;20445;-67
2022/08/16 09:46:08;;;;;;;7.13;6.43;;;;;;;;;;5134037;28;20797;-67
2022/08/16 09:48:40;;;;;;;10.47;7.37;;;;;;;;;;5134648;28;20753;-67
2022/08/16 09:51:08;;;;;;;9.40;7.30;;;;;;;;;;5134510;28;20444;-67
2022/08/16 09:53:35;;;;;;;7.87;7.13;;;;;;;;;;5134169;28;20526;-67
2022/08/16 09:56:04;;;;;;;8.87;7.50;;;;;;;;;;5133909;27;20437;-67
2022/08/16 09:58:31;;;;;;;12.13;7.23;;;;;;;;;;5134066;27;20420;-67
2022/08/16 10:00:58;;;;;;;12.53;8.00;;;;;;;;;;5137199;27;20434;-67
2022/08/16 10:03:27;;;;;;;8.50;7.57;;;;;;;;;;5137992;27;20861;-67
2022/08/16 10:05:54;;;;;;;8.20;7.40;;;;;;;;;;5137382;27;20832;-67
2022/08/16 10:08:22;;;;;;;9.10;7.97;;;;;;;;;;5137107;27;20984;-67
2022/08/16 10:13:32;;;;;;;14.13;7.47;;;;;;;;;;5137075;27;20903;-67
2022/08/16 10:15:59;;;;;;;8.60;7.80;;;;;;;;;;5137007;27;20431;-67
2022/08/16 10:18:29;;;;;;;9.70;7.93;;;;;;;;;;5137063;27;20435;-67
2022/08/16 10:20:57;;;;;;;10.67;8.10;;;;;;;;;;5137166;27;20413;-67
2022/08/16 10:23:25;;;;;;;9.13;7.20;;;;;;;;;;5136736;27;20462;-67
2022/08/16 10:25:52;;;;;;;8.47;7.67;;;;;;;;;;5136918;27;20529;-67
2022/08/16 10:28:19;;;;;;;15.73;7.93;;;;;;;;;;5137205;27;20496;-67
2022/08/16 10:30:47;;;;;;;8.40;7.50;;;;;;;;;;5136905;27;20496;-67
2022/08/16 10:33:14;;;;;;;8.57;7.70;;;;;;;;;;5136537;27;21002;-67
2022/08/16 10:35:44;;;;;;;8.30;7.30;;;;;;;;;;5136378;27;20409;-67
2022/08/16 10:38:12;;;;;;;7.83;7.13;;;;;;;;;;5136783;27;20420;-66
2022/08/16 10:40:40;;;;;;;7.80;6.53;;;;;;;;;;5136561;27;20573;-67
2022/08/16 10:43:07;;;;;;;7.20;6.50;;;;;;;;;;5137091;27;20500;-67
2022/08/16 10:45:35;;;;;;;8.27;6.30;;;;;;;;;;5136588;27;20430;-67
2022/08/16 10:48:02;;;;;;;8.43;6.10;;;;;;;;;;5136577;27;20493;-67
2022/08/16 10:50:31;;;;;;;8.17;7.37;;;;;;;;;;5136117;27;20422;-67
2022/08/16 10:53:05;;;;;;;6.67;6.20;;;;;;;;;;5136541;27;20440;-67
2022/08/16 10:55:32;;;;;;;7.33;6.27;;;;;;;;;;5136604;27;20428;-67
2022/08/16 10:58:01;;;;;;;8.40;6.50;;;;;;;;;;5136091;27;20509;-66
2022/08/16 11:00:28;;;;;;;12.73;7.93;;;;;;;;;;5136114;27;20805;-66
2022/08/16 11:02:55;;;;;;;9.30;7.30;;;;;;;;;;5136056;27;20417;-67
2022/08/16 11:05:23;;;;;;;15.73;6.90;;;;;;;;;;5136148;27;20441;-66
2022/08/16 11:07:51;;;;;;;11.77;7.40;;;;;;;;;;5136214;27;20456;-66
2022/08/16 11:10:22;;;;;;;8.83;7.23;;;;;;;;;;5135133;27;21016;-66
2022/08/16 11:12:50;;;;;;;10.63;6.83;;;;;;;;;;5136445;27;20401;-66
2022/08/16 11:15:17;;;;;;;10.53;7.00;;;;;;;;;;5136126;27;20484;-66
2022/08/16 11:17:44;;;;;;;9.33;7.30;;;;;;;;;;5135591;27;20443;-68
2022/08/16 11:20:12;;;;;;;8.50;6.90;;;;;;;;;;5135695;27;20537;-66
2022/08/16 11:22:41;;;;;;;8.00;6.63;;;;;;;;;;5136008;27;20420;-66
2022/08/16 11:25:09;;;;;;;10.13;6.73;;;;;;;;;;5136089;27;20520;-66
2022/08/16 11:27:40;;;;;;;9.87;6.33;;;;;;;;;;5135905;27;20786;-66
2022/08/16 11:30:08;;;;;;;6.30;5.70;;;;;;;;;;5135680;27;20443;-66
2022/08/16 11:32:36;;;;;;;8.27;6.30;;;;;;;;;;5135646;27;20410;-66
2022/08/16 11:35:05;;;;;;;13.20;5.90;;;;;;;;;;5135561;27;20520;-66
2022/08/16 11:37:33;;;;;;;7.07;6.47;;;;;;;;;;5135521;27;20429;-66
2022/08/16 11:40:01;;;;;;;7.13;5.70;;;;;;;;;;5135442;27;20498;-66
2022/08/16 11:42:28;;;;;;;6.90;6.10;;;;;;;;;;5135480;27;20467;-66
2022/08/16 11:44:56;;;;;;;6.40;5.80;;;;;;;;;;5135645;27;20427;-66
2022/08/16 11:47:24;;;;;;;7.17;6.47;;;;;;;;;;5135091;27;20911;-66
2022/08/16 11:49:51;;;;;;;6.90;6.20;;;;;;;;;;5135969;27;20417;-66
2022/08/16 11:52:20;;;;;;;6.27;5.63;;;;;;;;;;5135402;27;20791;-67
2022/08/16 11:54:47;;;;;;;9.10;6.10;;;;;;;;;;5134877;27;20417;-67
2022/08/16 11:57:14;;;;;;;11.63;6.27;;;;;;;;;;5135356;27;20443;-66
2022/08/16 11:59:42;;;;;;;7.77;5.90;;;;;;;;;;5134775;27;20540;-66
2022/08/16 12:02:10;;;;;;;11.03;6.13;;;;;;;;;;5135065;27;20447;-67
2022/08/16 12:04:38;;;;;;;6.27;5.43;;;;;;;;;;5135108;27;20441;-67
2022/08/16 12:07:06;;;;;;;6.90;5.90;;;;;;;;;;5134686;27;20413;-67
2022/08/16 12:09:34;;;;;;;7.73;5.90;;;;;;;;;;5135078;27;20781;-67
2022/08/16 12:12:01;;;;;;;8.47;6.43;;;;;;;;;;5134870;27;20518;-67
2022/08/16 12:14:28;;;;;;;7.73;6.20;;;;;;;;;;5135126;27;20570;-67
2022/08/16 12:16:56;;;;;;;7.00;5.97;;;;;;;;;;5134503;27;20526;-67
2022/08/16 12:19:25;;;;;;;6.50;6.00;;;;;;;;;;5135296;27;20834;-67
2022/08/16 12:21:53;;;;;;;7.10;6.40;;;;;;;;;;5133682;27;20548;-67
2022/08/16 12:24:20;;;;;;;7.53;6.83;;;;;;;;;;5134910;27;20859;-67
2022/08/16 12:26:47;;;;;;;7.17;6.40;;;;;;;;;;5134263;27;20528;-67
2022/08/16 12:29:15;;;;;;;8.20;7.00;;;;;;;;;;5135237;27;20497;-67
2022/08/16 12:31:42;;;;;;;7.67;6.83;;;;;;;;;;5134754;27;20538;-67
2022/08/16 12:34:10;;;;;;;7.20;6.60;;;;;;;;;;5134657;27;20746;-67
2022/08/16 12:36:38;;;;;;;9.03;6.53;;;;;;;;;;5134213;27;20539;-67
2022/08/16 12:39:07;;;;;;;7.70;7.10;;;;;;;;;;5134697;27;20457;-67
2022/08/16 12:41:36;;;;;;;7.03;6.30;;;;;;;;;;5134231;27;20999;-67
2022/08/16 12:44:04;;;;;;;9.83;7.30;;;;;;;;;;5134396;27;20887;-67
2022/08/16 12:46:31;;;;;;;10.60;7.13;;;;;;;;;;5134415;27;20523;-67
2022/08/16 12:48:58;;;;;;;6.87;6.27;;;;;;;;;;5134447;28;20926;-67
2022/08/16 12:51:27;;;;;;;9.20;6.10;;;;;;;;;;5134408;28;20416;-67
2022/08/16 12:53:57;;;;;;;9.57;7.00;;;;;;;;;;5134126;28;20532;-72
2022/08/16 12:56:27;;;;;;;11.63;6.40;;;;;;;;;;5134264;28;20436;-68
2022/08/16 12:58:55;;;;;;;10.37;6.43;;;;;;;;;;5134658;28;20443;-77
2022/08/16 13:01:24;;;;;;;8.10;7.30;;;;;;;;;;5134154;28;20826;-67
2022/08/16 13:03:54;;;;;;;8.80;7.60;;;;;;;;;;5134064;28;21018;-66
2022/08/16 13:06:21;;;;;;;8.27;6.37;;;;;;;;;;5134160;28;20471;-67
2022/08/16 13:08:49;;;;;;;7.03;6.33;;;;;;;;;;5134343;28;20798;-66
2022/08/16 13:11:21;;;;;;;7.47;6.83;;;;;;;;;;5134092;28;20448;-67
2022/08/16 13:13:48;;;;;;;9.93;6.47;;;;;;;;;;5133593;28;20445;-67
2022/08/16 13:16:15;;;;;;;7.45;6.50;;;;;;;;;;5133544;27;20902;-67
2022/08/16 13:18:42;;;;;;;8.93;6.80;;;;;;;;;;5133234;28;20195;-66
2022/08/16 13:21:10;;;;;;;7.43;6.73;;;;;;;;;;5133230;28;20920;-66
2022/08/16 13:23:37;;;;;;;9.83;7.07;;;;;;;;;;5133322;28;20452;-66
2022/08/16 13:26:05;;;;;;;8.23;7.43;;;;;;;;;;5133607;28;20879;-66
2022/08/16 13:28:34;;;;;;;9.20;7.13;;;;;;;;;;5134280;28;20528;-66
2022/08/16 13:31:02;;;;;;;7.90;7.10;;;;;;;;;;5133460;28;20461;-67
2022/08/16 13:33:35;;;;;;;7.07;6.47;;;;;;;;;;5134354;27;20530;-66
2022/08/16 13:36:04;;;;;;;7.67;6.00;;;;;;;;;;5138356;27;20519;-67
2022/08/16 13:38:31;;;;;;;6.90;6.20;;;;;;;;;;5137837;27;20854;-67
2022/08/16 13:40:59;;;;;;;7.40;6.60;;;;;;;;;;5137435;27;20480;-67
2022/08/16 13:43:26;;;;;;;9.00;6.47;;;;;;;;;;5137414;27;20937;-67
2022/08/16 13:45:55;;;;;;;9.33;6.23;;;;;;;;;;5137520;27;20531;-65
2022/08/16 13:48:23;;;;;;;6.63;6.00;;;;;;;;;;5137318;27;20457;-67
2022/08/16 13:50:50;;;;;;;7.90;6.43;;;;;;;;;;5137202;27;20446;-66
2022/08/16 13:53:17;;;;;;;6.77;6.17;;;;;;;;;;5137574;27;20528;-66
2022/08/16 13:55:44;;;;;;;7.67;5.83;;;;;;;;;;5137629;27;20880;-66
2022/08/16 13:58:11;;;;;;;6.33;5.70;;;;;;;;;;5137077;27;20525;-66
2022/08/16 14:00:39;;;;;;;8.43;5.87;;;;;;;;;;5137621;27;20515;-73
2022/08/16 14:03:08;;;;;;;8.83;5.53;;;;;;;;;;5137282;27;20951;-66
2022/08/16 14:05:35;;;;;;;6.33;5.83;;;;;;;;;;5137376;27;20587;-66
2022/08/16 14:08:02;;;;;;;6.17;5.57;;;;;;;;;;5137329;27;20440;-66
2022/08/16 14:10:29;;;;;;;6.50;5.90;;;;;;;;;;5137765;27;20498;-66
2022/08/16 14:12:57;;;;;;;5.33;4.83;;;;;;;;;;5137028;27;20441;-66
2022/08/16 14:15:24;;;;;;;6.07;5.50;;;;;;;;;;5136783;27;20460;-66
2022/08/16 14:17:51;;;;;;;5.50;5.00;;;;;;;;;;5137136;27;20872;-66
2022/08/16 14:20:20;;;;;;;5.67;5.17;;;;;;;;;;5136644;27;20557;-67
2022/08/16 14:22:47;;;;;;;5.37;4.87;;;;;;;;;;5137286;27;20518;-67
2022/08/16 14:25:16;;;;;;;5.73;5.30;;;;;;;;;;5136709;27;20953;-66
2022/08/16 14:27:44;;;;;;;5.87;5.27;;;;;;;;;;5136958;27;20532;-66
2022/08/16 14:30:12;;;;;;;5.60;5.10;;;;;;;;;;5136714;27;20442;-66
2022/08/16 14:32:40;;;;;;;6.10;5.30;;;;;;;;;;5136714;27;20526;-65
2022/08/16 14:35:09;;;;;;;7.50;5.40;;;;;;;;;;5136774;27;20446;-65
2022/08/16 14:37:37;;;;;;;8.93;5.57;;;;;;;;;;5136309;27;20444;-65
2022/08/16 14:40:05;;;;;;;5.70;5.30;;;;;;;;;;5136860;27;20568;-65
2022/08/16 14:42:32;;;;;;;5.70;5.30;;;;;;;;;;5137207;27;20441;-65